createdAt,value
2018-05-17T00:01:03.467Z,11.27
2018-05-17T00:11:03.545Z,11.03
2018-05-17T00:21:03.461Z,10.89
2018-05-17T00:31:03.529Z,10.62
2018-05-17T00:41:03.576Z,10.59
2018-05-17T00:51:04.473Z,10.43
2018-05-17T01:01:03.538Z,10.66
2018-05-17T01:11:03.467Z,10.73
2018-05-17T01:21:03.552Z,10.77
2018-05-17T01:31:04.538Z,10.65
2018-05-17T01:41:03.477Z,10.76
2018-05-17T01:51:04.552Z,10.46
2018-05-17T02:01:04.519Z,10.73
2018-05-17T02:11:03.421Z,10.59
2018-05-17T02:21:03.549Z,10.6
2018-05-17T02:31:03.502Z,10.7
2018-05-17T02:41:04.477Z,10.59
2018-05-17T02:51:03.485Z,10.65
2018-05-17T03:01:03.590Z,10.63
2018-05-17T03:11:03.528Z,10.52
2018-05-17T03:21:03.488Z,10.62
2018-05-17T03:31:03.566Z,10.58
2018-05-17T03:41:03.494Z,10.71
2018-05-17T03:51:04.056Z,10.7
2018-05-17T04:01:03.533Z,10.77
2018-05-17T04:11:03.585Z,10.77
2018-05-17T04:21:04.656Z,10.84
2018-05-17T04:31:03.637Z,10.81
2018-05-17T04:41:04.582Z,11.07
2018-05-17T04:51:03.647Z,11.35
2018-05-17T05:01:04.614Z,11.56
2018-05-17T05:11:04.615Z,11.61
2018-05-17T05:21:03.588Z,11.89
2018-05-17T05:31:03.745Z,11.9
2018-05-17T05:41:03.676Z,12.16
2018-05-17T05:51:03.621Z,12.33
2018-05-17T06:01:04.747Z,12.19
2018-05-17T06:11:03.639Z,12.56
2018-05-17T06:21:03.720Z,12.46
2018-05-17T06:31:03.660Z,12.78
2018-05-17T06:41:03.759Z,13.14
2018-05-17T06:51:03.801Z,13.44
2018-05-17T07:01:03.886Z,14.2
2018-05-17T07:11:03.796Z,13.96
2018-05-17T07:21:03.788Z,14.02
2018-05-17T07:31:03.808Z,14.65
2018-05-17T07:41:03.805Z,17.2
2018-05-17T07:51:03.825Z,15.93
2018-05-17T08:01:03.816Z,15.66
2018-05-17T08:11:03.733Z,19.72
2018-05-17T08:21:03.832Z,21.57
2018-05-17T08:31:03.757Z,22.38
2018-05-17T08:41:04.105Z,22.32
2018-05-17T08:51:37.793Z,21.46
2018-05-17T09:01:41.762Z,19.83
2018-05-17T09:11:36.780Z,17.97
2018-05-17T09:21:40.699Z,17.94
2018-05-17T09:31:38.389Z,17.54
2018-05-17T09:41:31.942Z,17.46
2018-05-17T09:51:18.336Z,16.63
2018-05-17T10:01:31.283Z,16.33
2018-05-17T10:11:33.017Z,16.99
2018-05-17T10:21:10.951Z,17.13
2018-05-17T10:31:09.242Z,17.06
2018-05-17T10:41:09.280Z,16.99
2018-05-17T10:51:08.484Z,17.11
2018-05-17T11:01:10.363Z,17.23
2018-05-17T11:11:08.864Z,17.46
2018-05-17T11:21:08.273Z,17.08
2018-05-17T11:31:31.377Z,17.11
2018-05-17T11:41:25.774Z,17.41
2018-05-17T11:51:10.075Z,17.57
2018-05-17T12:01:07.923Z,17.84
2018-05-17T12:11:09.296Z,17.82
2018-05-17T12:21:09.463Z,17.88
2018-05-17T12:31:10.111Z,18.06
2018-05-17T12:41:09.114Z,17.97
2018-05-17T12:51:09.287Z,17.92
2018-05-17T13:01:09.451Z,17.78
2018-05-17T13:11:13.004Z,17.89
2018-05-17T13:21:09.344Z,18.25
2018-05-17T13:31:32.701Z,18.54
2018-05-17T13:41:03.735Z,18.55
2018-05-17T13:51:03.851Z,18.58
2018-05-17T14:01:30.633Z,18.72
2018-05-17T14:11:29.604Z,18.67
2018-05-17T14:21:11.239Z,18.49
2018-05-17T14:31:09.522Z,18.39
2018-05-17T14:41:08.351Z,18.49
2018-05-17T14:51:08.266Z,18.43
2018-05-17T15:11:55.931Z,18.36
2018-05-17T15:13:09.132Z,18.37
2018-05-17T15:22:56.746Z,18.44
2018-05-17T15:32:59.883Z,18.15
2018-05-17T15:42:58.582Z,17.76
2018-05-17T15:52:57.155Z,17.74
2018-05-17T16:02:56.931Z,17.78
2018-05-17T16:12:58.454Z,17.48
2018-05-17T16:22:56.682Z,17.3
2018-05-17T16:32:57.664Z,17.28
2018-05-17T16:42:55.655Z,17.07
2018-05-17T16:52:55.499Z,17.06
2018-05-17T17:02:59.749Z,16.8
2018-05-17T17:12:57.929Z,16.15
2018-05-17T17:22:58.196Z,15.66
2018-05-17T17:33:00.685Z,15.46
2018-05-17T17:42:58.193Z,14.94
2018-05-17T17:52:58.993Z,14.86
2018-05-17T18:03:14.269Z,14.32
2018-05-17T18:13:06.525Z,14.09
2018-05-17T18:23:18.839Z,14.01
2018-05-17T18:33:06.604Z,13.92
2018-05-17T18:42:56.963Z,13.81
2018-05-17T18:52:56.791Z,13.76
2018-05-17T19:02:58.949Z,13.63
2018-05-17T19:12:57.409Z,13.41
2018-05-17T19:22:53.733Z,13.33
2018-05-17T19:32:53.639Z,13.2
2018-05-17T19:42:53.790Z,12.84
2018-05-17T19:52:53.806Z,12.82
2018-05-17T20:02:53.798Z,12.63
2018-05-17T20:12:53.706Z,12.64
2018-05-17T20:22:53.765Z,12.49
2018-05-17T20:32:53.822Z,12.41
2018-05-17T20:42:53.756Z,12.26
2018-05-17T20:52:53.791Z,12.23
2018-05-17T21:02:53.921Z,12.06
2018-05-17T21:12:53.902Z,12.04
2018-05-17T21:22:53.814Z,11.93
2018-05-17T21:32:53.936Z,11.83
2018-05-17T21:42:53.884Z,11.71
2018-05-17T21:52:53.895Z,11.56
2018-05-17T22:02:53.816Z,11.62
2018-05-17T22:12:54.264Z,11.52
2018-05-17T22:22:53.961Z,11.43
2018-05-17T22:32:53.801Z,11.52
2018-05-17T22:42:53.785Z,11.36
2018-05-17T22:52:53.813Z,11.35
2018-05-17T23:02:53.855Z,11.25
2018-05-17T23:12:53.812Z,11.11
2018-05-17T23:22:53.988Z,11.1
2018-05-17T23:32:54.179Z,11.01
2018-05-17T23:42:53.905Z,11.11
2018-05-17T23:53:00.349Z,11.01
